createdAt,value
2019-02-07T04:16:33.606Z,69.67
2019-02-07T04:19:27.522Z,74.50
2019-02-07T04:22:13.963Z,82.40
2019-02-07T04:25:05.288Z,72.10
2019-02-07T04:27:52.523Z,70.50
2019-02-07T04:30:49.851Z,95.70
2019-02-07T04:33:36.738Z,70.13
2019-02-07T04:36:20.522Z,77.00
2019-02-07T04:38:58.473Z,76.07
2019-02-07T04:41:55.455Z,68.60
2019-02-07T04:44:49.651Z,78.33
2019-02-07T04:47:36.734Z,61.43
2019-02-07T04:50:31.232Z,63.83
2019-02-07T04:53:25.163Z,54.93
2019-02-07T04:56:11.788Z,55.93
2019-02-07T04:58:59.943Z,53.73
2019-02-07T05:01:46.641Z,50.60
2019-02-07T05:04:30.448Z,61.80
2019-02-07T05:07:24.742Z,64.00
2019-02-07T05:10:21.683Z,63.83
2019-02-07T05:13:06.987Z,53.80
2019-02-07T05:15:53.939Z,49.27
2019-02-07T05:18:40.741Z,52.83
2019-02-07T05:21:27.234Z,61.53
2019-02-07T05:24:12.454Z,60.37
2019-02-07T05:27:01.575Z,55.20
2019-02-07T05:29:46.669Z,59.57
2019-02-07T05:32:26.915Z,64.20
2019-02-07T05:35:18.108Z,71.00
2019-02-07T05:38:19.573Z,67.08
2019-02-07T05:41:16.835Z,61.20
2019-02-07T05:44:05.234Z,53.03
2019-02-07T05:46:56.193Z,74.10
2019-02-07T05:49:44.647Z,63.33
2019-02-07T05:52:33.562Z,58.00
2019-02-07T05:55:20.226Z,55.17
2019-02-07T05:58:08.429Z,51.00
2019-02-07T06:00:56.730Z,51.07
2019-02-07T06:03:36.955Z,54.70
2019-02-07T06:06:36.956Z,51.00
2019-02-07T06:09:13.954Z,66.93
2019-02-07T06:12:05.048Z,68.20
2019-02-07T06:14:59.148Z,63.83
2019-02-07T06:17:52.018Z,58.13
2019-02-07T06:20:40.177Z,53.27
2019-02-07T06:23:31.896Z,54.07
2019-02-07T06:26:14.321Z,69.87
2019-02-07T06:29:04.219Z,60.80
2019-02-07T06:31:52.369Z,64.73
2019-02-07T06:34:39.349Z,56.80
2019-02-07T06:37:17.588Z,71.87
2019-02-07T06:39:56.072Z,51.50
2019-02-07T06:42:33.470Z,69.50
2019-02-07T06:45:29.409Z,47.27
2019-02-07T06:48:20.734Z,67.30
2019-02-07T06:51:08.721Z,53.80
2019-02-07T06:53:56.749Z,56.10
2019-02-07T06:57:00.035Z,54.83
2019-02-07T06:59:39.169Z,62.20
2019-02-07T07:02:45.290Z,56.60
2019-02-07T07:05:27.974Z,66.10
2019-02-07T07:08:19.306Z,72.83
2019-02-07T07:11:22.961Z,55.27
2019-02-07T07:14:00.966Z,52.53
2019-02-07T07:16:53.723Z,53.47
2019-02-07T07:19:41.527Z,61.93
2019-02-07T07:22:22.283Z,57.10
2019-02-07T07:25:09.058Z,63.00
2019-02-07T07:27:57.863Z,48.00
2019-02-07T07:30:44.422Z,50.70
2019-02-07T07:33:22.894Z,57.83
2019-02-07T07:36:18.230Z,53.17
2019-02-07T07:39:21.664Z,58.73
2019-02-07T07:42:13.003Z,45.23
2019-02-07T07:44:54.475Z,55.70
2019-02-07T07:47:48.722Z,49.40
2019-02-07T07:50:35.610Z,49.30
2019-02-07T07:53:39.063Z,51.43
2019-02-07T07:56:39.321Z,52.73
2019-02-07T07:59:42.163Z,54.63
2019-02-07T08:02:28.882Z,47.03
2019-02-07T08:05:03.813Z,46.53
2019-02-07T08:07:50.513Z,45.20
2019-02-07T08:10:50.691Z,43.80
2019-02-07T08:13:45.375Z,45.70
2019-02-07T08:16:42.631Z,38.30
2019-02-07T08:19:33.839Z,40.47
2019-02-07T08:22:11.451Z,38.90
2019-02-07T08:25:18.015Z,39.07
2019-02-07T08:28:07.820Z,29.83
2019-02-07T08:30:52.044Z,38.87
2019-02-07T08:33:40.274Z,37.13
2019-02-07T08:36:22.239Z,34.77
2019-02-07T08:39:07.299Z,29.30
2019-02-07T08:42:11.748Z,29.43
2019-02-07T08:45:01.687Z,38.20
2019-02-07T08:47:43.537Z,37.40
2019-02-07T08:50:47.391Z,32.63
2019-02-07T08:53:39.179Z,32.30
2019-02-07T08:56:20.682Z,28.30
2019-02-07T08:59:11.878Z,36.07
2019-02-07T09:02:08.867Z,30.67
2019-02-07T09:04:57.026Z,28.97
2019-02-07T09:07:50.004Z,26.73
2019-02-07T09:10:30.401Z,32.57
2019-02-07T09:13:21.405Z,32.60
2019-02-07T09:16:12.944Z,33.70
2019-02-07T09:18:55.066Z,29.07
2019-02-07T09:21:40.036Z,29.70
2019-02-07T09:24:27.052Z,29.03
2019-02-07T09:27:13.943Z,29.80
2019-02-07T09:30:00.843Z,29.87
2019-02-07T09:32:49.632Z,30.13
2019-02-07T09:35:33.789Z,27.07
2019-02-07T09:38:20.686Z,29.63
2019-02-07T09:41:01.103Z,28.30
2019-02-07T09:43:47.741Z,25.80
2019-02-07T09:46:40.657Z,33.10
2019-02-07T09:49:32.383Z,28.20
2019-02-07T09:52:29.656Z,34.30
2019-02-07T09:55:14.366Z,31.77
2019-02-07T09:58:02.610Z,32.27
2019-02-07T10:00:39.847Z,30.07
2019-02-07T10:03:26.494Z,33.20
2019-02-07T10:06:10.869Z,26.83
2019-02-07T10:08:51.373Z,34.40
2019-02-07T10:11:38.078Z,26.87
2019-02-07T10:14:15.185Z,28.97
2019-02-07T10:17:02.261Z,37.57
2019-02-07T10:19:53.308Z,38.33
2019-02-07T10:22:40.003Z,34.07
2019-02-07T10:25:26.826Z,36.67
2019-02-07T10:48:43.946Z,27.73
2019-02-07T10:51:21.746Z,23.07
2019-02-07T10:54:15.369Z,28.50
2019-02-07T10:57:09.692Z,27.90
2019-02-07T11:00:10.175Z,25.97
2019-02-07T11:03:13.503Z,29.57
2019-02-07T11:05:55.691Z,33.43
2019-02-07T11:08:43.812Z,35.83
2019-02-07T11:11:30.698Z,33.50
2019-02-07T11:14:25.087Z,29.37
2019-02-07T11:17:07.853Z,35.13
2019-02-07T11:20:02.056Z,38.70
2019-02-07T11:23:00.859Z,32.97
2019-02-07T11:25:58.514Z,30.23
2019-02-07T11:28:59.086Z,23.57
2019-02-07T11:31:45.469Z,32.30
2019-02-07T11:34:25.474Z,42.60
2019-02-07T11:37:32.022Z,33.00
2019-02-07T11:40:19.162Z,28.20
2019-02-07T11:43:05.799Z,31.13
2019-02-07T11:46:05.806Z,39.30
2019-02-07T11:48:52.422Z,29.77
2019-02-07T11:51:47.439Z,31.10
2019-02-07T11:54:41.759Z,36.50
2019-02-07T11:57:40.398Z,32.60
2019-02-07T12:00:31.330Z,26.10
2019-02-07T12:03:17.958Z,26.13
2019-02-07T12:06:04.531Z,26.37
2019-02-07T12:09:01.878Z,30.03
2019-02-07T12:11:48.867Z,27.47
2019-02-07T12:14:37.286Z,24.80
2019-02-07T12:17:24.176Z,28.57
2019-02-07T12:20:24.392Z,31.47
2019-02-07T12:23:15.571Z,27.17
2019-02-07T12:25:52.430Z,32.40
2019-02-07T12:28:47.454Z,25.90
2019-02-07T12:31:41.827Z,27.43
2019-02-07T12:34:37.490Z,31.00
2019-02-07T12:37:24.457Z,25.50
2019-02-07T12:40:11.432Z,33.13
2019-02-07T12:43:06.531Z,27.10
2019-02-07T12:45:52.920Z,28.30
2019-02-07T12:48:44.065Z,25.53
2019-02-07T12:51:40.502Z,26.40
2019-02-07T12:54:37.918Z,35.80
2019-02-07T12:57:35.019Z,29.10
2019-02-07T13:00:15.717Z,32.93
2019-02-07T13:03:16.146Z,32.57
2019-02-07T13:06:03.145Z,24.50
2019-02-07T13:08:48.156Z,25.73
2019-02-07T13:11:28.663Z,35.33
2019-02-07T13:14:19.818Z,30.00
2019-02-07T13:17:11.969Z,31.73
2019-02-07T13:19:59.289Z,30.87
2019-02-07T13:22:44.186Z,33.77
2019-02-07T13:25:41.602Z,33.67
2019-02-07T13:28:45.177Z,34.73
2019-02-07T13:31:23.442Z,38.83
2019-02-07T13:34:05.919Z,30.40
2019-02-07T13:37:03.138Z,38.10
2019-02-07T13:39:51.324Z,29.40
2019-02-07T13:42:34.689Z,38.47
2019-02-07T13:45:23.169Z,40.80
2019-02-07T13:48:14.234Z,36.13
2019-02-07T13:51:12.208Z,30.93
2019-02-07T13:53:48.516Z,39.10
2019-02-07T13:56:36.683Z,33.30
2019-02-07T13:59:23.566Z,35.20
2019-02-07T14:02:27.037Z,45.07
2019-02-07T14:05:27.598Z,29.23
2019-02-07T14:08:15.743Z,36.50
2019-02-07T14:11:05.094Z,39.07
2019-02-07T14:13:58.728Z,34.20
2019-02-07T14:16:40.058Z,41.17
2019-02-07T14:19:40.333Z,39.80
2019-02-07T14:22:22.637Z,37.83
2019-02-07T14:25:09.357Z,38.57
2019-02-07T14:27:48.571Z,40.67
2019-02-07T14:30:36.800Z,42.97
2019-02-07T14:33:17.301Z,38.60
2019-02-07T14:36:02.038Z,34.73
2019-02-07T14:38:56.015Z,38.60
2019-02-07T14:41:47.371Z,41.10
2019-02-07T14:44:27.355Z,36.07
2019-02-07T14:46:56.301Z,40.70
2019-02-07T14:49:25.725Z,42.40
2019-02-07T14:51:55.184Z,38.87
2019-02-07T14:54:24.392Z,46.57
2019-02-07T14:56:53.709Z,54.30
2019-02-07T14:59:22.859Z,39.00
2019-02-07T15:01:52.052Z,37.40
2019-02-07T15:04:21.042Z,37.53
2019-02-07T15:06:50.192Z,41.23
2019-02-07T15:09:20.655Z,46.83
2019-02-07T15:11:49.733Z,38.83
2019-02-07T15:14:18.825Z,38.13
2019-02-07T15:16:48.118Z,38.40
2019-02-07T15:19:17.174Z,41.53
2019-02-07T15:21:46.342Z,37.37
2019-02-07T15:24:15.503Z,48.50
2019-02-07T15:26:44.570Z,42.77
2019-02-07T15:29:16.007Z,49.93
2019-02-07T15:31:44.847Z,57.60
2019-02-07T15:34:15.285Z,55.70
2019-02-07T15:36:46.578Z,42.70
2019-02-07T15:39:16.762Z,47.87
2019-02-07T15:41:46.052Z,40.73
2019-02-07T15:44:15.234Z,44.67
2019-02-07T15:46:44.503Z,47.50
2019-02-07T15:49:13.667Z,50.10
2019-02-07T15:51:42.950Z,47.63
2019-02-07T15:54:12.090Z,49.40
2019-02-07T15:56:41.238Z,41.17
2019-02-07T15:59:35.488Z,35.07
2019-02-07T16:02:30.207Z,32.97
2019-02-07T16:04:59.734Z,36.20
2019-02-07T16:07:28.891Z,26.73
2019-02-07T16:09:58.014Z,28.53
2019-02-07T16:12:27.383Z,21.10
2019-02-07T16:14:56.760Z,15.27
2019-02-07T16:17:25.949Z,12.57
2019-02-07T16:19:55.304Z,18.23
2019-02-07T16:22:24.967Z,17.53
2019-02-07T16:24:54.113Z,8.93
2019-02-07T16:27:23.704Z,10.63
2019-02-07T16:29:52.922Z,7.83
2019-02-07T16:32:22.196Z,8.03
2019-02-07T16:34:51.224Z,6.00
2019-02-07T16:37:20.410Z,10.77
2019-02-07T16:39:49.647Z,10.77
2019-02-07T16:42:19.024Z,7.20
2019-02-07T16:44:48.718Z,5.97
2019-02-07T16:47:17.871Z,6.77
2019-02-07T16:49:47.099Z,10.10
2019-02-07T16:52:16.105Z,6.93
2019-02-07T16:54:45.222Z,7.57
2019-02-07T16:57:14.716Z,8.90
2019-02-07T16:59:43.800Z,6.67
2019-02-07T17:02:12.954Z,5.70
2019-02-07T17:04:41.981Z,5.30
2019-02-07T17:07:11.259Z,8.67
2019-02-07T17:09:41.869Z,3.00
2019-02-07T17:12:11.346Z,6.77
2019-02-07T17:14:40.405Z,15.50
2019-02-07T17:17:09.395Z,4.47
2019-02-07T17:19:38.559Z,4.30
2019-02-07T17:22:07.845Z,6.10
2019-02-07T17:24:36.915Z,7.47
2019-02-07T17:27:09.411Z,6.93
2019-02-07T17:29:38.382Z,6.70
2019-02-07T17:32:07.630Z,7.17
2019-02-07T17:34:36.724Z,3.67
2019-02-07T17:37:05.803Z,6.77
2019-02-07T17:39:34.979Z,8.27
2019-02-07T17:42:04.458Z,7.00
2019-02-07T17:44:33.684Z,3.00
2019-02-07T17:47:02.871Z,2.27
2019-02-07T17:49:32.173Z,6.90
2019-02-07T17:52:01.278Z,7.30
2019-02-07T17:54:30.263Z,3.20
2019-02-07T17:56:59.567Z,4.37
2019-02-07T17:59:28.694Z,2.00
2019-02-07T18:01:57.808Z,5.70
2019-02-07T18:04:27.431Z,4.47
2019-02-07T18:06:56.625Z,2.20
2019-02-07T18:09:25.957Z,5.27
2019-02-07T18:11:55.398Z,2.70
2019-02-07T18:14:24.710Z,2.10
2019-02-07T18:16:53.711Z,5.90
2019-02-07T18:19:22.871Z,2.90
2019-02-07T18:21:51.880Z,1.97
2019-02-07T18:24:21.007Z,2.20
2019-02-07T18:26:50.072Z,2.10
2019-02-07T18:29:19.243Z,2.47
2019-02-07T18:31:48.230Z,4.97
2019-02-07T18:34:17.406Z,8.83
2019-02-07T18:36:46.453Z,2.60
2019-02-07T18:39:15.549Z,2.27
2019-02-07T18:41:44.766Z,3.53
2019-02-07T18:44:14.196Z,3.33
2019-02-07T18:46:43.459Z,2.27
2019-02-07T18:49:12.682Z,5.00
2019-02-07T18:51:45.751Z,3.93
2019-02-07T18:54:12.915Z,3.83
2019-02-07T18:56:41.925Z,8.83
2019-02-07T18:59:11.302Z,4.57
2019-02-07T19:01:40.418Z,2.50
2019-02-07T19:04:09.566Z,3.87
2019-02-07T19:06:38.675Z,4.80
2019-02-07T19:09:09.351Z,4.60
2019-02-07T19:11:38.452Z,3.70
2019-02-07T19:14:09.438Z,2.10
2019-02-07T19:16:38.640Z,5.23
2019-02-07T19:19:08.079Z,4.03
2019-02-07T19:21:37.088Z,4.50
2019-02-07T19:24:06.352Z,2.57
2019-02-07T19:26:35.580Z,2.60
2019-02-07T19:29:05.705Z,4.60
2019-02-07T19:31:34.963Z,9.37
2019-02-07T19:34:04.242Z,2.90
2019-02-07T19:36:33.366Z,3.23
2019-02-07T19:39:02.663Z,3.77
2019-02-07T19:41:31.736Z,7.90
2019-02-07T19:44:00.879Z,4.13
2019-02-07T19:46:30.023Z,6.70
2019-02-07T19:48:59.133Z,7.47
2019-02-07T19:51:28.114Z,6.10
2019-02-07T19:53:57.190Z,18.17
2019-02-07T19:56:26.255Z,7.17
2019-02-07T19:58:55.330Z,3.60
2019-02-07T20:01:24.676Z,4.20
2019-02-07T20:03:53.670Z,6.47
2019-02-07T20:06:22.734Z,8.53
2019-02-07T20:08:51.979Z,13.97
2019-02-07T20:11:21.096Z,4.53
2019-02-07T20:13:50.153Z,5.50
2019-02-07T20:16:19.612Z,5.93
2019-02-07T20:18:48.727Z,6.23
2019-02-07T20:21:17.814Z,4.63
2019-02-07T20:23:46.936Z,5.53
2019-02-07T20:26:16.079Z,10.63
2019-02-07T20:28:45.281Z,5.10
2019-02-07T20:31:14.310Z,4.33
2019-02-07T20:33:43.347Z,6.60
2019-02-07T20:36:12.479Z,7.33
2019-02-07T20:38:41.558Z,4.73
2019-02-07T20:41:10.659Z,4.40
2019-02-07T20:43:39.765Z,6.37
2019-02-07T20:46:08.911Z,7.43
2019-02-07T20:48:37.940Z,10.83
2019-02-07T20:51:07.300Z,8.50
2019-02-07T20:53:36.447Z,5.20
2019-02-07T20:56:06.161Z,7.03
2019-02-07T20:58:35.388Z,6.17
2019-02-07T21:01:04.639Z,8.67
2019-02-07T21:03:33.841Z,9.43
2019-02-07T21:06:02.971Z,8.20
2019-02-07T21:08:32.407Z,8.43
2019-02-07T21:11:01.565Z,9.83
2019-02-07T21:13:30.662Z,12.53
2019-02-07T21:15:59.663Z,7.23
2019-02-07T21:18:28.826Z,5.27
2019-02-07T21:20:57.889Z,7.13
2019-02-07T21:23:27.132Z,6.40
2019-02-07T21:25:56.264Z,7.97
2019-02-07T21:28:25.399Z,7.00
2019-02-07T21:30:54.509Z,7.10
2019-02-07T21:33:23.588Z,6.10
2019-02-07T21:35:52.578Z,10.13
2019-02-07T21:38:21.648Z,9.10
2019-02-07T21:40:51.114Z,9.87
2019-02-07T21:43:20.109Z,7.37
2019-02-07T21:45:49.289Z,7.30
2019-02-07T21:48:18.422Z,6.10
2019-02-07T21:50:47.682Z,9.73
2019-02-07T21:53:16.912Z,5.70
2019-02-07T21:55:46.127Z,12.17
2019-02-07T21:58:15.777Z,9.50
2019-02-07T22:00:45.743Z,8.77
2019-02-07T22:03:15.923Z,7.97
2019-02-07T22:05:45.052Z,7.80
2019-02-07T22:08:14.214Z,14.67
2019-02-07T22:10:43.381Z,10.13
2019-02-07T22:13:12.937Z,8.37
2019-02-07T22:15:41.930Z,9.50
2019-02-07T22:18:11.106Z,11.57
2019-02-07T22:20:40.198Z,14.47
2019-02-07T22:23:09.278Z,18.23
2019-02-07T22:25:38.402Z,13.30
2019-02-07T22:28:08.457Z,10.70
2019-02-07T22:30:38.249Z,12.57
2019-02-07T22:33:07.993Z,9.53
2019-02-07T22:35:37.125Z,14.63
2019-02-07T22:38:07.662Z,16.23
2019-02-07T22:40:36.842Z,45.50
2019-02-07T22:43:06.357Z,21.33
2019-02-07T22:45:35.449Z,18.73
2019-02-07T22:48:04.818Z,13.37
2019-02-07T22:50:33.798Z,20.17
2019-02-07T22:53:02.982Z,19.10
2019-02-07T22:55:32.171Z,16.67
2019-02-07T22:58:01.547Z,11.57
2019-02-07T23:01:27.985Z,15.20
2019-02-07T23:03:59.382Z,7.93
2019-02-07T23:06:28.547Z,10.63
2019-02-07T23:08:57.803Z,6.93
2019-02-07T23:11:27.259Z,7.30
2019-02-07T23:13:56.397Z,5.97
2019-02-07T23:16:25.650Z,8.43
2019-02-07T23:18:55.027Z,8.37
2019-02-07T23:21:24.155Z,5.90
2019-02-07T23:23:53.304Z,6.60
2019-02-07T23:26:22.430Z,6.80
2019-02-07T23:28:51.509Z,7.80
